< Typhoon 201626 2017 Season Typhoon 201702 >
Typhoon 201701 (MUIFA)
General InformationTrack Information on Google MapsDetailed Wind InformationForecast History on Google MapsAccess Analytics MapList of All Images || NewsDisaster Info.WeblogTrackbackTyphoon FrontTwiphoonTyphoon Now!Typhoon ImaginationJMA Disaster Info. XMLResourceGoogle EarthGE AnimationAtom FeedGeoJSON
Detalied Best Track (Time Zone = UTC)
Year Month Day Hour Lat. Long. Pressure (hPa) Wind (kt) Class Image Chart
2017 4 22 18 8.6 143.9 1006 0 2 Image Chart
2017 4 23 00 9.2 143.2 1006 0 2 Image Chart
2017 4 23 06 9.9 142.4 1006 0 2 Image Chart
2017 4 23 12 10.6 141.7 1006 0 2 Image Chart
2017 4 23 18 11.2 140.8 1006 0 2 Image Chart
2017 4 24 00 11.8 139.7 1006 0 2 Image Chart
2017 4 24 06 12.1 138.8 1004 0 2 Image Chart
2017 4 24 12 12.4 138.2 1004 0 2 Image Chart
2017 4 24 18 12.5 137.5 1004 0 2 Image Chart
2017 4 25 00 12.7 137.0 1004 0 2 Image Chart
2017 4 25 06 12.8 136.6 1004 0 2 Image Chart
2017 4 25 12 12.9 136.4 1004 0 2 Image Chart
2017 4 25 18 13.1 136.0 1002 35 3 Image Chart
2017 4 26 00 13.2 135.7 1002 35 3 Image Chart
2017 4 26 06 13.6 134.8 1002 35 3 Image Chart
2017 4 26 12 14.0 134.4 1002 35 3 Image Chart
2017 4 26 18 14.4 134.4 1002 35 3 Image Chart
2017 4 27 00 14.8 134.4 1002 35 3 Image Chart
2017 4 27 06 15.9 134.7 1004 0 2 Image Chart
2017 4 27 12 17.0 134.7 1006 0 2 Image Chart
2017 4 27 18 17.8 134.8 1006 0 2 Image Chart
2017 4 28 00 18.4 135.5 1008 0 2 Image Chart
2017 4 28 06 19.0 136.3 1008 0 2 Image Chart
2017 4 28 12 19.9 137.7 1008 0 2 Image Chart
2017 4 28 18 20.8 139.0 1008 0 2 Image Chart
2017 4 29 00 21.5 140.2 1008 0 2 Image Chart
2017 4 29 06 22.7 141.8 1008 0 2 Image Chart
Japan Meteorological Agency Best Track Data | Correction Date : 2017-06-09
< Typhoon 201626 2017 Season Typhoon 201702 >

Help